Time;durP1;ratioP1;P1;durP2;ratioP2;P2;SDS_P1;SDS_P2;PMS_P1;PMS_P2;Temp;Humidity;BMP_temperature;BMP_pressure;BME280_temperature;BME280_humidity;BME280_pressure;Samples;Min_cycle;Max_cycle;Signal;HPM_P1;HPM_P2
2023/03/30 00:00:17;;;;;;;12.23;2.35;;;17.30;98.50;;;;;;5075233;28;20209;-60
2023/03/30 00:02:45;;;;;;;9.80;2.67;;;17.30;98.80;;;;;;5075906;28;20189;-60
2023/03/30 00:05:12;;;;;;;7.50;2.33;;;17.30;99.30;;;;;;5075726;28;20284;-60
2023/03/30 00:07:41;;;;;;;9.20;2.22;;;17.40;99.90;;;;;;5075711;28;20228;-60
2023/03/30 00:10:11;;;;;;;6.80;2.15;;;17.30;99.90;;;;;;5075111;28;20209;-60
2023/03/30 00:12:39;;;;;;;9.45;2.28;;;17.30;99.90;;;;;;5075724;28;20205;-60
2023/03/30 00:15:08;;;;;;;10.75;2.60;;;17.30;99.90;;;;;;5074883;28;20264;-60
2023/03/30 00:17:35;;;;;;;10.40;2.53;;;17.30;99.90;;;;;;5074434;28;20204;-60
2023/03/30 00:20:04;;;;;;;9.63;2.47;;;17.40;99.90;;;;;;5074587;28;20209;-61
2023/03/30 00:22:32;;;;;;;6.38;2.47;;;17.40;99.90;;;;;;5074792;28;20216;-60
2023/03/30 00:24:58;;;;;;;9.80;2.47;;;17.40;99.90;;;;;;5074546;28;20302;-60
2023/03/30 00:27:26;;;;;;;7.28;2.38;;;17.40;99.90;;;;;;5074730;28;20201;-60
2023/03/30 00:29:53;;;;;;;6.18;2.08;;;17.30;99.90;;;;;;5074594;28;20224;-61
2023/03/30 00:32:20;;;;;;;7.87;2.40;;;17.30;99.90;;;;;;5074743;28;20338;-60
2023/03/30 00:34:47;;;;;;;7.90;2.35;;;17.30;99.90;;;;;;5074967;28;20294;-60
2023/03/30 00:37:14;;;;;;;10.00;2.47;;;17.30;99.90;;;;;;5074877;28;20262;-60
2023/03/30 00:39:41;;;;;;;8.82;2.30;;;17.30;99.90;;;;;;5074914;28;20236;-60
2023/03/30 00:42:13;;;;;;;6.63;2.20;;;17.30;99.90;;;;;;5075272;28;20651;-60
2023/03/30 00:45:17;;;;;;;7.82;2.42;;;17.40;99.90;;;;;;5074740;28;20724;-60
2023/03/30 00:47:48;;;;;;;9.48;2.63;;;17.40;99.90;;;;;;5075298;28;20200;-60
2023/03/30 00:50:16;;;;;;;8.57;2.60;;;17.40;99.90;;;;;;5074548;28;20665;-60
2023/03/30 00:52:46;;;;;;;12.40;2.53;;;17.40;99.90;;;;;;5074391;28;20283;-61
2023/03/30 00:55:13;;;;;;;7.32;2.30;;;17.30;99.90;;;;;;5074165;28;20229;-60
2023/03/30 00:57:43;;;;;;;11.75;2.63;;;17.20;99.90;;;;;;5074175;28;20203;-60
2023/03/30 01:00:13;;;;;;;10.57;2.58;;;17.10;99.90;;;;;;5074333;28;20254;-60
2023/03/30 01:02:44;;;;;;;8.38;2.40;;;17.10;99.90;;;;;;5074603;28;20284;-60
2023/03/30 01:05:11;;;;;;;11.80;2.22;;;17.10;99.90;;;;;;5074531;28;20233;-60
2023/03/30 01:07:40;;;;;;;13.93;2.40;;;17.10;99.90;;;;;;5073370;28;20215;-60
2023/03/30 01:10:09;;;;;;;19.35;3.25;;;17.10;99.90;;;;;;5073771;28;20207;-60
2023/03/30 01:12:37;;;;;;;10.73;2.65;;;17.10;99.90;;;;;;5073746;28;20213;-60
2023/03/30 01:15:06;;;;;;;11.48;2.50;;;17.10;99.90;;;;;;5074114;28;20229;-60
2023/03/30 01:17:42;;;;;;;9.23;2.38;;;17.10;99.90;;;;;;5073826;28;20205;-60
2023/03/30 01:20:46;;;;;;;9.93;2.85;;;17.00;99.90;;;;;;5073948;28;20664;-60
2023/03/30 01:23:42;;;;;;;12.93;2.15;;;17.00;99.90;;;;;;5074204;28;20631;-60
2023/03/30 01:26:34;;;;;;;7.15;2.60;;;17.00;99.90;;;;;;5074077;28;20208;-60
2023/03/30 01:29:11;;;;;;;13.70;2.55;;;17.00;99.90;;;;;;5073543;28;20215;-60
2023/03/30 01:32:09;;;;;;;7.75;2.35;;;17.10;99.90;;;;;;5073466;28;20210;-61
2023/03/30 01:34:50;;;;;;;9.68;2.78;;;17.10;99.90;;;;;;5073512;28;20221;-60
2023/03/30 01:37:47;;;;;;;8.63;2.30;;;17.20;99.90;;;;;;5073298;28;20209;-60
2023/03/30 01:40:20;;;;;;;10.88;2.50;;;17.20;99.90;;;;;;5073372;28;20209;-60
2023/03/30 01:42:55;;;;;;;11.38;2.70;;;17.20;99.90;;;;;;5073898;28;20205;-60
2023/03/30 01:45:27;;;;;;;14.23;2.85;;;17.20;99.90;;;;;;5073595;28;20318;-60
2023/03/30 01:47:59;;;;;;;11.57;2.30;;;17.20;99.90;;;;;;5073498;28;20211;-60
2023/03/30 01:50:31;;;;;;;11.43;3.22;;;17.00;99.90;;;;;;5074091;28;20585;-60
2023/03/30 01:53:02;;;;;;;5.95;2.30;;;17.00;99.90;;;;;;5074187;28;20295;-60
2023/03/30 01:55:34;;;;;;;11.35;2.55;;;16.80;99.90;;;;;;5073944;28;20229;-60
2023/03/30 01:58:06;;;;;;;15.27;2.60;;;16.80;99.90;;;;;;5073770;28;20554;-60
2023/03/30 02:00:35;;;;;;;12.43;3.03;;;16.70;99.90;;;;;;5074084;28;20189;-59
2023/03/30 02:03:07;;;;;;;9.65;2.70;;;16.70;99.90;;;;;;5073973;28;20214;-60
2023/03/30 02:05:35;;;;;;;11.93;2.88;;;16.70;99.90;;;;;;5074062;28;20274;-60
2023/03/30 02:08:08;;;;;;;9.63;2.55;;;16.70;99.90;;;;;;5074010;28;20201;-60
2023/03/30 02:10:37;;;;;;;12.88;2.80;;;16.70;99.90;;;;;;5074334;28;20205;-60
2023/03/30 02:13:06;;;;;;;10.43;2.63;;;16.60;99.90;;;;;;5074129;28;20209;-60
2023/03/30 02:15:35;;;;;;;15.65;3.35;;;16.60;99.90;;;;;;5073683;28;20233;-60
2023/03/30 02:18:03;;;;;;;10.57;2.60;;;16.70;99.90;;;;;;5074187;28;20209;-60
2023/03/30 02:20:30;;;;;;;10.43;2.78;;;16.70;99.90;;;;;;5076844;28;20205;-60
2023/03/30 02:22:57;;;;;;;15.90;3.03;;;16.70;99.90;;;;;;5078182;28;20224;-60
2023/03/30 02:25:24;;;;;;;13.10;3.13;;;16.70;99.90;;;;;;5077579;28;20237;-60
2023/03/30 02:27:53;;;;;;;12.30;2.50;;;16.70;99.90;;;;;;5077754;28;20240;-60
2023/03/30 02:30:19;;;;;;;13.85;3.20;;;16.70;99.90;;;;;;5078016;28;20206;-60
2023/03/30 02:32:48;;;;;;;12.07;3.03;;;16.70;99.90;;;;;;5077787;28;20208;-60
2023/03/30 02:35:37;;;;;;;11.77;2.38;;;16.70;99.90;;;;;;5077734;28;20610;-60
2023/03/30 02:38:25;;;;;;;8.68;2.75;;;16.60;99.90;;;;;;5078024;28;20212;-60
2023/03/30 02:41:00;;;;;;;12.35;2.67;;;16.60;99.90;;;;;;5077827;28;20208;-60
2023/03/30 02:43:37;;;;;;;10.13;2.95;;;16.60;99.90;;;;;;5077877;28;20189;-61
2023/03/30 02:46:18;;;;;;;15.10;3.00;;;16.70;99.90;;;;;;5077618;28;20201;-61
2023/03/30 02:48:51;;;;;;;11.07;2.37;;;16.60;99.90;;;;;;5077560;28;20205;-60
2023/03/30 02:51:33;;;;;;;14.03;2.90;;;16.50;99.90;;;;;;5077480;28;20205;-60
2023/03/30 02:54:09;;;;;;;10.25;2.63;;;16.50;99.90;;;;;;5076986;28;20730;-60
2023/03/30 02:56:41;;;;;;;9.33;2.80;;;16.50;99.90;;;;;;5077796;28;20220;-59
2023/03/30 02:59:15;;;;;;;10.25;2.80;;;16.50;99.90;;;;;;5077790;28;20209;-60
2023/03/30 03:01:46;;;;;;;15.07;3.70;;;16.50;99.90;;;;;;5077840;28;20212;-59
2023/03/30 03:04:15;;;;;;;14.67;3.60;;;16.60;99.90;;;;;;5078717;28;20292;-59
2023/03/30 03:06:42;;;;;;;11.07;3.17;;;16.60;99.90;;;;;;5078432;28;20209;-59
2023/03/30 03:09:09;;;;;;;14.63;3.10;;;16.60;99.90;;;;;;5076790;28;20614;-59
2023/03/30 03:11:36;;;;;;;13.43;3.00;;;16.50;99.90;;;;;;5076536;28;20232;-60
2023/03/30 03:14:02;;;;;;;16.57;3.80;;;16.40;99.90;;;;;;5075932;28;20224;-60
2023/03/30 03:16:30;;;;;;;15.77;3.17;;;16.40;99.90;;;;;;5075788;28;20813;-59
2023/03/30 03:18:57;;;;;;;10.05;2.75;;;16.40;99.90;;;;;;5075265;28;20216;-60
2023/03/30 03:21:24;;;;;;;14.63;3.37;;;16.30;99.90;;;;;;5075175;28;20208;-60
2023/03/30 03:23:50;;;;;;;12.00;3.90;;;16.30;99.90;;;;;;5075142;28;20216;-59
2023/03/30 03:26:17;;;;;;;11.20;2.75;;;16.20;99.90;;;;;;5075566;28;20201;-60
2023/03/30 03:28:44;;;;;;;14.80;2.57;;;16.10;99.90;;;;;;5074967;28;20205;-59
2023/03/30 03:31:12;;;;;;;15.15;4.40;;;16.10;99.90;;;;;;5074928;28;20216;-59
2023/03/30 03:33:40;;;;;;;12.53;3.73;;;16.10;99.90;;;;;;5075017;28;20225;-60
2023/03/30 03:36:09;;;;;;;16.87;3.40;;;16.10;99.90;;;;;;5075031;28;20231;-60
2023/03/30 03:38:36;;;;;;;14.83;3.60;;;16.00;99.90;;;;;;5075259;28;20317;-60
2023/03/30 03:41:03;;;;;;;14.90;3.80;;;16.00;99.90;;;;;;5074531;28;20216;-60
2023/03/30 03:43:30;;;;;;;14.07;3.13;;;15.90;99.90;;;;;;5076082;28;20728;-61
2023/03/30 03:45:58;;;;;;;14.23;3.90;;;15.90;99.90;;;;;;5075867;28;20225;-61
2023/03/30 03:48:25;;;;;;;14.13;4.90;;;15.90;99.90;;;;;;5075348;28;20232;-61
2023/03/30 03:50:55;;;;;;;13.07;3.40;;;15.90;99.90;;;;;;5075519;28;20213;-60
2023/03/30 03:53:23;;;;;;;13.13;3.97;;;15.90;99.90;;;;;;5076268;28;20280;-60
2023/03/30 03:55:51;;;;;;;9.60;2.60;;;15.90;99.90;;;;;;5075851;28;20600;-60
2023/03/30 03:58:18;;;;;;;14.50;3.93;;;15.80;99.90;;;;;;5074792;28;20215;-61
2023/03/30 04:00:45;;;;;;;13.63;4.50;;;15.70;99.90;;;;;;5075013;28;20201;-61
2023/03/30 04:03:11;;;;;;;11.20;3.13;;;15.60;99.90;;;;;;5074367;28;20231;-60
2023/03/30 04:05:39;;;;;;;15.27;3.67;;;15.70;99.90;;;;;;5074987;28;20305;-60
2023/03/30 04:08:09;;;;;;;11.80;4.37;;;15.70;99.90;;;;;;5074117;28;20683;-60
2023/03/30 04:10:36;;;;;;;14.20;4.40;;;15.70;99.90;;;;;;5075874;28;20209;-59
2023/03/30 04:13:03;;;;;;;10.67;2.60;;;15.60;99.90;;;;;;5075602;28;20615;-59
2023/03/30 04:15:29;;;;;;;10.27;2.78;;;15.60;99.90;;;;;;5074764;28;20232;-59
2023/03/30 04:17:57;;;;;;;11.40;3.70;;;15.60;99.90;;;;;;5075522;28;20284;-59
2023/03/30 04:20:25;;;;;;;13.53;3.13;;;15.60;99.90;;;;;;5074873;28;20209;-59
2023/03/30 04:22:52;;;;;;;11.03;3.27;;;15.50;99.90;;;;;;5075031;28;20205;-59
2023/03/30 04:25:21;;;;;;;11.97;2.83;;;15.60;99.90;;;;;;5074957;28;20603;-60
2023/03/30 04:27:49;;;;;;;8.23;2.93;;;15.70;99.90;;;;;;5075431;28;20279;-59
2023/03/30 04:30:17;;;;;;;14.73;4.60;;;15.60;99.90;;;;;;5074373;28;20200;-59
2023/03/30 04:32:45;;;;;;;9.90;3.47;;;15.50;99.90;;;;;;5074706;28;20479;-60
2023/03/30 04:35:13;;;;;;;13.53;3.67;;;15.60;99.90;;;;;;5074145;28;20224;-59
2023/03/30 04:37:40;;;;;;;13.70;3.37;;;15.60;99.90;;;;;;5074136;28;20567;-59
2023/03/30 04:40:09;;;;;;;10.97;3.30;;;15.60;99.90;;;;;;5073564;28;20259;-59
2023/03/30 04:42:37;;;;;;;13.27;3.30;;;15.60;99.90;;;;;;5074270;28;20216;-59
2023/03/30 04:45:04;;;;;;;11.10;3.20;;;15.60;99.90;;;;;;5073739;28;20259;-59
2023/03/30 04:47:32;;;;;;;15.83;3.60;;;15.50;99.90;;;;;;5074058;28;20201;-60
2023/03/30 04:49:58;;;;;;;14.77;4.03;;;15.50;99.90;;;;;;5074107;28;20208;-59
2023/03/30 04:52:25;;;;;;;17.30;3.43;;;15.50;99.90;;;;;;5073773;28;20240;-59
2023/03/30 04:54:52;;;;;;;16.97;3.70;;;15.40;99.90;;;;;;5074658;28;20732;-60
2023/03/30 04:57:19;;;;;;;16.10;3.90;;;15.40;99.90;;;;;;5075010;28;20646;-60
2023/03/30 04:59:47;;;;;;;15.33;3.37;;;15.40;99.90;;;;;;5076197;28;20299;-59
2023/03/30 05:02:15;;;;;;;12.60;3.33;;;15.30;99.90;;;;;;5075971;28;20239;-59
2023/03/30 05:04:41;;;;;;;13.57;3.03;;;15.10;99.90;;;;;;5075102;28;20286;-59
2023/03/30 05:07:09;;;;;;;12.03;3.30;;;14.90;99.90;;;;;;5074300;28;20693;-59
2023/03/30 05:09:36;;;;;;;14.27;3.30;;;14.90;99.90;;;;;;5075175;28;20209;-59
2023/03/30 05:12:03;;;;;;;18.70;3.47;;;14.80;99.90;;;;;;5074677;28;20216;-60
2023/03/30 05:14:30;;;;;;;8.73;3.43;;;14.80;99.90;;;;;;5074599;28;20236;-59
2023/03/30 05:16:58;;;;;;;16.23;3.50;;;14.60;99.90;;;;;;5074446;28;20274;-59
2023/03/30 05:19:25;;;;;;;15.53;3.93;;;14.70;99.90;;;;;;5074179;28;20212;-59
2023/03/30 05:21:52;;;;;;;14.07;3.60;;;14.70;99.90;;;;;;5074209;28;20288;-59
2023/03/30 05:24:19;;;;;;;14.10;3.10;;;14.60;99.90;;;;;;5073825;28;20243;-59
2023/03/30 05:26:46;;;;;;;13.30;3.23;;;14.70;99.90;;;;;;5074146;28;20205;-60
2023/03/30 05:29:13;;;;;;;12.73;2.77;;;14.70;99.90;;;;;;5074063;28;20209;-59
2023/03/30 05:31:39;;;;;;;11.13;3.10;;;14.70;99.90;;;;;;5073696;28;20216;-59
2023/03/30 05:34:08;;;;;;;13.40;3.87;;;14.60;99.90;;;;;;5073417;28;20251;-59
2023/03/30 05:36:35;;;;;;;13.03;3.40;;;14.60;99.90;;;;;;5073670;28;20628;-59
2023/03/30 05:39:04;;;;;;;14.40;3.27;;;14.60;99.90;;;;;;5073862;28;20254;-59
2023/03/30 05:41:31;;;;;;;14.10;2.97;;;14.60;99.90;;;;;;5073655;28;20669;-59
2023/03/30 05:43:57;;;;;;;14.07;3.23;;;14.70;99.90;;;;;;5074455;28;20229;-60
2023/03/30 05:46:25;;;;;;;12.90;2.90;;;14.70;99.90;;;;;;5073564;28;20693;-60
2023/03/30 05:48:51;;;;;;;10.87;3.40;;;14.70;99.90;;;;;;5073674;28;20270;-59
2023/03/30 05:51:19;;;;;;;12.00;3.40;;;14.70;99.90;;;;;;5072862;28;20673;-59
2023/03/30 05:53:46;;;;;;;18.83;3.57;;;14.60;99.90;;;;;;5073629;28;20240;-60
2023/03/30 05:56:13;;;;;;;14.20;3.47;;;14.60;99.90;;;;;;5077338;28;20278;-60
2023/03/30 05:58:40;;;;;;;8.17;2.93;;;14.50;99.90;;;;;;5077352;28;20204;-60
2023/03/30 06:01:08;;;;;;;14.20;2.90;;;14.50;99.90;;;;;;5077091;28;20228;-59
2023/03/30 06:03:35;;;;;;;12.80;3.50;;;14.50;99.90;;;;;;5076997;28;20233;-60
2023/03/30 06:06:02;;;;;;;10.27;3.60;;;14.60;99.90;;;;;;5076936;28;20204;-60
2023/03/30 06:08:30;;;;;;;13.83;3.47;;;14.80;99.90;;;;;;5077062;28;20205;-60
2023/03/30 06:10:57;;;;;;;13.20;3.47;;;14.80;99.90;;;;;;5076923;28;20211;-60
2023/03/30 06:13:24;;;;;;;13.80;3.93;;;15.00;99.90;;;;;;5076987;28;20208;-59
2023/03/30 06:15:51;;;;;;;13.73;3.90;;;15.10;99.90;;;;;;5077150;28;20236;-59
2023/03/30 06:18:17;;;;;;;13.73;3.37;;;15.30;99.90;;;;;;5076338;28;20240;-59
2023/03/30 06:20:47;;;;;;;9.63;2.90;;;15.40;99.90;;;;;;5076289;28;20760;-60
2023/03/30 06:23:14;;;;;;;12.53;2.90;;;15.50;99.90;;;;;;5077090;28;20597;-60
2023/03/30 06:25:46;;;;;;;13.13;3.97;;;15.70;99.90;;;;;;5076961;28;20294;-60
2023/03/30 06:28:12;;;;;;;10.23;3.50;;;15.80;99.90;;;;;;5077438;28;20216;-60
2023/03/30 06:30:39;;;;;;;17.67;4.70;;;16.00;99.90;;;;;;5077180;28;20323;-59
2023/03/30 06:33:06;;;;;;;11.40;3.13;;;16.00;99.90;;;;;;5077295;28;20251;-59
2023/03/30 06:35:33;;;;;;;12.43;3.50;;;16.00;99.90;;;;;;5077567;28;20225;-60
2023/03/30 06:38:00;;;;;;;15.27;3.83;;;16.00;99.90;;;;;;5076285;28;20708;-59
2023/03/30 06:40:27;;;;;;;10.98;3.33;;;15.90;99.90;;;;;;5076716;28;20204;-59
2023/03/30 06:42:55;;;;;;;14.23;3.57;;;15.90;99.90;;;;;;5076915;28;20665;-60
2023/03/30 06:45:23;;;;;;;16.80;3.87;;;15.90;99.90;;;;;;5075904;28;20229;-58
2023/03/30 06:47:50;;;;;;;14.83;3.63;;;16.10;99.90;;;;;;5076286;28;20657;-60
2023/03/30 06:50:17;;;;;;;11.85;3.67;;;16.20;99.90;;;;;;5087324;28;20208;-64
2023/03/30 06:52:44;;;;;;;15.50;3.30;;;16.40;99.90;;;;;;5096369;28;20208;-61
2023/03/30 06:55:11;;;;;;;10.77;3.00;;;16.50;99.90;;;;;;5077371;28;20236;-60
2023/03/30 06:57:38;;;;;;;14.35;3.60;;;16.50;99.90;;;;;;5075704;28;20278;-59
2023/03/30 07:00:12;;;;;;;13.55;3.47;;;16.50;99.90;;;;;;5075356;28;20586;-59
2023/03/30 07:02:39;;;;;;;10.82;3.13;;;16.50;99.90;;;;;;5075562;28;20677;-61
2023/03/30 07:05:07;;;;;;;13.25;3.78;;;16.60;99.90;;;;;;5074827;28;20224;-60
2023/03/30 07:07:34;;;;;;;20.95;7.72;;;16.70;99.90;;;;;;5075649;28;20205;-60
2023/03/30 07:10:06;;;;;;;12.60;3.90;;;16.70;99.90;;;;;;5075007;28;20304;-58
2023/03/30 07:12:33;;;;;;;11.23;3.30;;;16.70;99.90;;;;;;5073464;28;20679;-58
2023/03/30 07:15:00;;;;;;;12.80;3.80;;;16.50;99.90;;;;;;5073527;28;20282;-59
2023/03/30 07:17:29;;;;;;;13.98;4.03;;;16.50;99.90;;;;;;5073369;28;20228;-58
2023/03/30 07:19:55;;;;;;;14.82;3.63;;;16.40;99.90;;;;;;5073743;28;20205;-58
2023/03/30 07:22:22;;;;;;;11.13;3.20;;;16.30;99.90;;;;;;5072936;28;20221;-58
2023/03/30 07:24:49;;;;;;;15.47;3.00;;;16.10;99.90;;;;;;5073608;28;20248;-58
2023/03/30 07:27:16;;;;;;;15.65;3.80;;;16.00;99.90;;;;;;5073012;28;20220;-58
2023/03/30 07:29:43;;;;;;;13.38;3.30;;;15.80;99.90;;;;;;5073339;28;20224;-58
2023/03/30 07:32:10;;;;;;;11.02;2.92;;;15.70;99.90;;;;;;5072626;28;20201;-58
2023/03/30 07:34:38;;;;;;;15.33;3.47;;;15.60;99.90;;;;;;5072936;28;20224;-59
2023/03/30 07:37:05;;;;;;;10.13;3.37;;;15.60;99.90;;;;;;5072986;28;20666;-59
2023/03/30 07:39:32;;;;;;;11.77;3.13;;;15.60;99.90;;;;;;5073281;28;20231;-58
2023/03/30 07:41:59;;;;;;;12.15;3.22;;;15.50;99.90;;;;;;5072662;28;20255;-59
2023/03/30 07:44:28;;;;;;;14.37;3.50;;;15.50;99.90;;;;;;5072800;28;20225;-59
2023/03/30 07:46:54;;;;;;;9.40;3.33;;;15.50;99.90;;;;;;5072808;28;20221;-59
2023/03/30 07:49:21;;;;;;;20.20;7.17;;;15.50;99.90;;;;;;5072305;28;20679;-59
2023/03/30 07:51:50;;;;;;;12.70;5.53;;;15.50;99.90;;;;;;5072476;28;20204;-59
2023/03/30 07:54:17;;;;;;;11.73;3.67;;;15.50;99.90;;;;;;5072196;28;20252;-59
2023/03/30 07:56:44;;;;;;;11.90;3.70;;;15.50;99.90;;;;;;5072461;28;20204;-59
2023/03/30 07:59:12;;;;;;;9.67;3.23;;;15.50;99.90;;;;;;5072298;28;20585;-59
2023/03/30 08:01:39;;;;;;;14.83;3.93;;;15.50;99.90;;;;;;5073211;28;20359;-59
2023/03/30 08:04:06;;;;;;;7.73;3.27;;;15.60;99.90;;;;;;5072517;28;20700;-58
2023/03/30 08:06:33;;;;;;;13.80;3.73;;;15.60;99.90;;;;;;5072377;28;20211;-58
2023/03/30 08:09:01;;;;;;;9.03;3.90;;;15.60;99.90;;;;;;5071674;28;20201;-59
2023/03/30 08:11:28;;;;;;;11.90;4.33;;;15.60;99.90;;;;;;5072075;28;20216;-58
2023/03/30 08:13:55;;;;;;;13.77;4.07;;;15.50;99.90;;;;;;5072129;28;20208;-58
2023/03/30 08:16:22;;;;;;;15.00;4.03;;;15.60;99.90;;;;;;5071563;28;20205;-58
2023/03/30 08:18:49;;;;;;;14.53;4.17;;;15.60;99.90;;;;;;5071848;28;20224;-58
2023/03/30 08:21:16;;;;;;;16.07;4.13;;;15.50;99.90;;;;;;5071566;28;20323;-59
2023/03/30 08:23:43;;;;;;;12.33;4.13;;;15.70;99.90;;;;;;5071479;28;20200;-58
2023/03/30 08:26:11;;;;;;;11.53;4.07;;;15.70;99.90;;;;;;5072230;28;20208;-58
2023/03/30 08:28:38;;;;;;;17.37;4.43;;;15.70;99.90;;;;;;5071743;28;20201;-59
2023/03/30 08:31:06;;;;;;;8.47;3.17;;;15.80;99.90;;;;;;5072025;28;20205;-59
2023/03/30 08:33:33;;;;;;;10.83;3.93;;;15.80;99.90;;;;;;5072186;28;20208;-59
2023/03/30 08:36:00;;;;;;;12.33;4.73;;;15.80;99.90;;;;;;5072131;28;20232;-58
2023/03/30 08:38:28;;;;;;;11.17;4.50;;;15.90;99.90;;;;;;5071826;28;20252;-59
2023/03/30 08:40:55;;;;;;;8.67;3.50;;;15.80;99.90;;;;;;5071770;28;20209;-59
2023/03/30 08:43:45;;;;;;;7.47;3.00;;;15.80;99.90;;;;;;5071740;28;20219;-59
2023/03/30 08:46:14;;;;;;;12.20;3.77;;;15.70;99.90;;;;;;5071515;28;20295;-59
2023/03/30 08:48:42;;;;;;;9.73;3.50;;;15.70;99.90;;;;;;5071621;28;20205;-58
2023/03/30 08:51:18;;;;;;;11.15;3.72;;;15.80;99.90;;;;;;5071745;28;20258;-58
2023/03/30 08:53:46;;;;;;;9.60;3.00;;;16.00;99.90;;;;;;5072425;28;20266;-59
2023/03/30 08:56:19;;;;;;;12.32;3.42;;;16.20;99.90;;;;;;5071790;28;20205;-60
2023/03/30 08:58:55;;;;;;;12.07;3.53;;;16.30;99.90;;;;;;5071096;28;20589;-59
2023/03/30 09:01:26;;;;;;;11.50;3.53;;;16.50;99.90;;;;;;5071308;28;20209;-59
2023/03/30 09:04:07;;;;;;;8.60;3.15;;;16.50;99.90;;;;;;5072102;28;20268;-59
2023/03/30 09:06:46;;;;;;;13.05;3.10;;;16.50;99.90;;;;;;5072465;28;20212;-59
2023/03/30 09:09:17;;;;;;;11.80;2.90;;;16.50;99.90;;;;;;5071883;28;20268;-58
2023/03/30 09:11:46;;;;;;;7.55;2.83;;;16.40;99.90;;;;;;5071650;28;20208;-58
2023/03/30 09:14:20;;;;;;;9.07;3.00;;;16.30;99.90;;;;;;5072185;28;20229;-59
2023/03/30 09:16:55;;;;;;;9.23;2.93;;;16.20;99.90;;;;;;5072468;28;20695;-59
2023/03/30 09:19:30;;;;;;;6.28;2.67;;;16.00;99.90;;;;;;5073141;28;20609;-58
2023/03/30 09:21:59;;;;;;;4.22;2.08;;;15.80;99.90;;;;;;5073083;28;20735;-59
2023/03/30 09:24:28;;;;;;;7.87;2.83;;;15.80;99.90;;;;;;5072446;28;20255;-58
2023/03/30 09:27:02;;;;;;;9.38;2.22;;;15.80;99.90;;;;;;5072893;28;20220;-59
2023/03/30 09:29:32;;;;;;;7.25;2.67;;;15.80;99.90;;;;;;5075961;28;20203;-58
2023/03/30 09:32:04;;;;;;;8.37;2.77;;;15.80;99.90;;;;;;5075769;28;20463;-59
2023/03/30 09:34:38;;;;;;;7.17;2.63;;;15.80;99.90;;;;;;5075457;28;20703;-59
2023/03/30 09:37:09;;;;;;;6.88;3.00;;;15.80;99.90;;;;;;5075662;28;20584;-59
2023/03/30 09:39:37;;;;;;;38.90;32.03;;;15.90;99.90;;;;;;5075721;28;20204;-58
2023/03/30 09:42:24;;;;;;;8.50;4.15;;;16.00;99.90;;;;;;5076084;28;20231;-58
2023/03/30 09:44:57;;;;;;;9.32;3.10;;;15.90;99.90;;;;;;5075797;28;20319;-59
2023/03/30 09:47:26;;;;;;;9.13;2.80;;;16.00;99.90;;;;;;5075860;28;20209;-58
2023/03/30 09:49:58;;;;;;;11.70;2.97;;;16.10;99.90;;;;;;5076619;28;20681;-59
2023/03/30 09:52:26;;;;;;;9.00;4.07;;;16.30;99.90;;;;;;5075966;28;20216;-59
2023/03/30 09:54:53;;;;;;;7.72;2.58;;;16.60;99.90;;;;;;5075919;28;20224;-59
2023/03/30 09:57:26;;;;;;;8.18;2.95;;;16.80;99.90;;;;;;5075608;28;20204;-59
2023/03/30 09:59:55;;;;;;;4.87;2.17;;;16.90;99.90;;;;;;5076027;28;20572;-59
2023/03/30 10:02:26;;;;;;;5.43;2.35;;;17.00;99.90;;;;;;5075803;28;20285;-59
2023/03/30 10:04:57;;;;;;;7.05;2.28;;;17.00;99.90;;;;;;5075457;28;20228;-59
2023/03/30 10:07:26;;;;;;;6.35;2.70;;;17.10;99.90;;;;;;5075289;28;20707;-59
2023/03/30 10:09:54;;;;;;;6.50;2.75;;;17.10;99.90;;;;;;5074884;28;20211;-59
2023/03/30 10:12:24;;;;;;;6.13;2.88;;;17.10;99.90;;;;;;5075123;28;20672;-59
2023/03/30 10:14:56;;;;;;;6.70;2.60;;;17.10;99.90;;;;;;5075691;28;20225;-59
2023/03/30 10:17:25;;;;;;;8.85;2.97;;;17.00;99.90;;;;;;5075761;28;20201;-60
2023/03/30 10:19:53;;;;;;;5.55;2.22;;;16.90;99.90;;;;;;5075335;28;20213;-60
2023/03/30 10:22:22;;;;;;;7.80;2.60;;;16.80;99.90;;;;;;5075403;28;20209;-60
2023/03/30 10:24:50;;;;;;;6.47;2.70;;;16.80;99.90;;;;;;5074974;28;20832;-60
2023/03/30 10:27:18;;;;;;;15.35;11.25;;;16.80;99.90;;;;;;5075116;28;20211;-59
2023/03/30 10:29:47;;;;;;;10.30;5.55;;;16.80;99.90;;;;;;5075514;28;20209;-60
2023/03/30 10:32:18;;;;;;;5.80;2.35;;;16.90;99.90;;;;;;5074838;28;20267;-60
2023/03/30 10:34:47;;;;;;;4.07;2.10;;;16.90;99.90;;;;;;5074643;28;20236;-59
2023/03/30 10:37:18;;;;;;;4.63;2.22;;;17.00;99.90;;;;;;5075418;28;20220;-59
2023/03/30 10:39:48;;;;;;;5.10;2.38;;;16.80;99.90;;;;;;5075196;28;20629;-59
2023/03/30 10:42:18;;;;;;;6.70;2.00;;;16.80;99.90;;;;;;5076049;28;20213;-59
2023/03/30 10:44:47;;;;;;;5.75;2.08;;;16.90;99.90;;;;;;5075880;28;20221;-59
2023/03/30 10:47:32;;;;;;;7.78;2.10;;;16.90;99.90;;;;;;5075013;28;20205;-58
2023/03/30 10:50:06;;;;;;;6.28;2.33;;;16.80;99.90;;;;;;5074831;28;20227;-60
2023/03/30 10:52:42;;;;;;;6.95;2.05;;;16.80;99.90;;;;;;5074781;28;20208;-60
2023/03/30 10:55:15;;;;;;;5.57;2.28;;;16.80;99.90;;;;;;5075588;28;20297;-59
2023/03/30 10:57:51;;;;;;;5.28;2.35;;;16.80;99.90;;;;;;5075531;28;20224;-59
2023/03/30 11:00:30;;;;;;;3.55;2.17;;;16.80;99.90;;;;;;5074920;28;20627;-59
2023/03/30 11:03:06;;;;;;;5.28;1.65;;;16.80;99.90;;;;;;5074889;28;20262;-59
2023/03/30 11:05:37;;;;;;;4.05;2.00;;;16.80;99.90;;;;;;5074299;28;20282;-65
2023/03/30 11:08:06;;;;;;;7.20;2.30;;;16.70;99.90;;;;;;5074124;28;20216;-59
2023/03/30 11:10:36;;;;;;;3.70;2.13;;;16.70;99.90;;;;;;5073750;28;20205;-59
2023/03/30 11:13:05;;;;;;;3.08;1.67;;;16.70;99.90;;;;;;5073532;28;20213;-58
2023/03/30 11:15:38;;;;;;;4.27;2.30;;;16.80;99.90;;;;;;5073677;28;20248;-58
2023/03/30 11:18:13;;;;;;;4.95;2.30;;;17.20;99.90;;;;;;5073245;28;20253;-58
2023/03/30 11:20:45;;;;;;;3.83;2.15;;;17.60;99.90;;;;;;5073468;28;20213;-58
2023/03/30 11:23:18;;;;;;;5.45;2.35;;;18.00;99.90;;;;;;5074430;28;20201;-59
2023/03/30 11:25:55;;;;;;;4.32;2.47;;;18.40;99.90;;;;;;5073080;28;20233;-58
2023/03/30 11:28:35;;;;;;;7.05;2.50;;;18.80;99.90;;;;;;5073724;28;20205;-58
2023/03/30 11:31:12;;;;;;;6.97;2.42;;;19.20;99.90;;;;;;5073233;28;20733;-58
2023/03/30 11:33:45;;;;;;;6.65;2.40;;;19.50;99.90;;;;;;5074076;28;20207;-58
2023/03/30 11:36:17;;;;;;;5.85;2.40;;;20.00;99.90;;;;;;5073703;28;20278;-58
2023/03/30 11:38:49;;;;;;;6.20;2.60;;;20.30;99.90;;;;;;5073053;28;20307;-58
2023/03/30 11:41:22;;;;;;;6.47;2.72;;;20.60;99.90;;;;;;5073259;28;20778;-58
2023/03/30 11:43:54;;;;;;;6.43;2.08;;;20.80;99.90;;;;;;5073611;28;20201;-64
2023/03/30 11:46:27;;;;;;;6.85;2.90;;;21.00;99.90;;;;;;5073422;28;20232;-59
2023/03/30 11:49:11;;;;;;;7.07;2.67;;;21.20;99.90;;;;;;5073121;28;20247;-59
2023/03/30 11:51:49;;;;;;;4.78;2.20;;;21.40;99.90;;;;;;5071943;28;20211;-59
2023/03/30 11:54:44;;;;;;;4.93;2.53;;;21.50;99.90;;;;;;5073359;28;20250;-62
2023/03/30 11:57:17;;;;;;;7.50;2.67;;;21.50;99.90;;;;;;5074123;28;20181;-60
2023/03/30 12:00:00;;;;;;;4.60;2.10;;;21.30;99.90;;;;;;5074508;28;20232;-61
2023/03/30 12:02:37;;;;;;;6.65;3.58;;;21.00;99.90;;;;;;5074423;28;20575;-58
2023/03/30 12:05:11;;;;;;;5.03;1.83;;;20.70;99.90;;;;;;5073811;28;20228;-58
2023/03/30 12:07:46;;;;;;;5.32;2.50;;;20.60;99.90;;;;;;5073474;28;20205;-57
2023/03/30 12:10:20;;;;;;;5.63;2.50;;;20.50;99.90;;;;;;5073774;28;20196;-59
2023/03/30 12:12:48;;;;;;;4.90;2.20;;;20.30;99.90;;;;;;5073049;28;20657;-58
2023/03/30 12:15:36;;;;;;;8.95;2.13;;;20.10;99.90;;;;;;5073860;28;20229;-58
2023/03/30 12:18:12;;;;;;;6.78;2.35;;;19.90;99.90;;;;;;5073319;28;20236;-58
2023/03/30 12:20:47;;;;;;;4.95;2.88;;;19.80;99.90;;;;;;5073445;28;20212;-59
2023/03/30 12:23:33;;;;;;;4.47;2.45;;;19.70;99.90;;;;;;5072938;28;20211;-59
2023/03/30 12:26:18;;;;;;;8.35;2.72;;;19.60;99.90;;;;;;5072769;28;20821;-58
2023/03/30 12:28:48;;;;;;;5.85;2.83;;;19.60;99.90;;;;;;5072981;28;20661;-58
2023/03/30 12:31:16;;;;;;;6.65;2.20;;;19.50;99.90;;;;;;5072744;28;20582;-58
2023/03/30 12:33:48;;;;;;;7.10;2.55;;;19.70;99.90;;;;;;5072638;28;20240;-58
2023/03/30 12:36:32;;;;;;;6.00;2.20;;;19.90;99.90;;;;;;5072855;28;20208;-58
2023/03/30 12:39:01;;;;;;;4.00;2.33;;;20.00;99.90;;;;;;5072925;28;20711;-58
2023/03/30 12:41:38;;;;;;;9.68;2.28;;;20.20;99.90;;;;;;5072521;28;20209;-58
2023/03/30 12:44:27;;;;;;;6.38;2.78;;;20.60;99.90;;;;;;5072570;28;20233;-58
2023/03/30 12:47:08;;;;;;;8.48;3.25;;;20.70;99.90;;;;;;5063094;28;20250;-58
2023/03/30 12:49:48;;;;;;;9.68;3.50;;;20.70;99.90;;;;;;5072830;28;20575;-57
2023/03/30 12:52:25;;;;;;;6.32;2.78;;;20.70;99.90;;;;;;5072875;28;20196;-58
2023/03/30 12:55:13;;;;;;;8.93;3.40;;;20.80;99.90;;;;;;5072502;28;20732;-58
2023/03/30 12:57:57;;;;;;;6.32;2.65;;;20.90;99.90;;;;;;5073087;28;20216;-58